Flight Track Log - Related Links

Times and Time Zones

All times are in EDT time to prevent confusion due to time zone crossing. See the SWA3121 flight status page for this flight to view local times or setup timezone preferences in your user account.

Time Position Orientation Groundspeed Altitude Reporting Facility
EDT Latitude Longitude Course Direction KTS MPH feet Rate Location/Type
Mon 02:17:56 PM 28.0000 -82.5333 360° North 155 178 800  Level Tampa TRACON
Mon 02:18:20 PM 28.0167 -82.5333 360° North 154 177 1,800 2,786 Climbing Tampa TRACON
Mon 02:19:20 PM 28.0667 -82.5333 360° North 227 261 4,700 3,352 Climbing Tampa TRACON
Mon 02:20:45 PM 28.1767 -82.5369 358° North 275 316 9,900 3,186 Climbing Jacksonville Center
Mon 02:21:45 PM 28.2664 -82.5486 353° North 288 331 12,400 2,850 Climbing Jacksonville Center
Mon 02:22:45 PM 28.3644 -82.5600 354° North 328 377 15,600 3,300 Climbing Jacksonville Center
Mon 02:23:45 PM 28.4667 -82.5692 355° North 355 409 19,000 3,100 Climbing Jacksonville Center
Mon 02:24:45 PM 28.5731 -82.5806 355° North 374 430 21,800 2,600 Climbing Jacksonville Center
Mon 02:25:45 PM 28.6858 -82.5919 355° North 385 443 24,200 2,300 Climbing Jacksonville Center
Mon 02:26:45 PM 28.8008 -82.6058 354° North 398 458 26,400 2,150 Climbing Jacksonville Center
Mon 02:27:45 PM 28.9175 -82.6222 353° North 411 473 28,500 2,000 Climbing Jacksonville Center
Mon 02:28:45 PM 29.0386 -82.6408 352° North 426 490 30,400 1,850 Climbing Jacksonville Center
Mon 02:29:45 PM 29.1639 -82.6572 353° North 438 504 32,200 1,800 Climbing Jacksonville Center
Mon 02:30:45 PM 29.2872 -82.6736 353° North 444 511 34,000 900 Climbing Jacksonville Center
Mon 02:31:45 PM 29.4144 -82.6922 353° North 449 517 34,000  Level Jacksonville Center
Mon 02:32:45 PM 29.5294 -82.6969 358° North 449 517 34,000 850 Level Jacksonville Center
Mon 02:33:45 PM 29.6525 -82.6919 North 444 511 35,700 1,650 Climbing Jacksonville Center
Mon 02:34:45 PM 29.7778 -82.6939 359° North 437 503 37,300 1,150 Climbing Jacksonville Center
Mon 02:35:45 PM 29.9011 -82.6936 360° North 437 503 38,000 350 Climbing Jacksonville Center
Mon 02:36:45 PM 30.0264 -82.6911 North 437 503 38,000  Level Jacksonville Center
Mon 02:37:45 PM 30.1472 -82.6883 North 437 503 38,000 333 Level Jacksonville Center
Mon 02:39:00 PM 30.2890 -82.6863 North  Level FlightAware Approximate
Mon 02:39:45 PM 30.4019 -82.6878 North 442 509 39,000  Level Jacksonville Center
Mon 02:40:45 PM 30.5253 -82.6731 North 442 509 39,000  Level Jacksonville Center
Mon 02:41:45 PM 30.6461 -82.6222 20° North 441 507 39,000  Level Jacksonville Center
Mon 02:42:45 PM 30.7650 -82.5614 24° Northeast 453 521 39,000  Level Jacksonville Center
Mon 02:43:45 PM 30.8839 -82.5053 22° Northeast 453 521 39,000  Level Jacksonville Center
Mon 02:44:45 PM 31.0028 -82.4442 24° Northeast 458 527 39,000  Level Jacksonville Center
Mon 02:45:45 PM 31.1258 -82.3878 21° North 463 533 39,000  Level Jacksonville Center
Mon 02:46:45 PM 31.2467 -82.3289 23° Northeast 463 533 39,000  Level Jacksonville Center
Mon 02:47:45 PM 31.3758 -82.2697 21° North 463 533 39,000  Level Jacksonville Center
Mon 02:48:45 PM 31.4986 -82.2056 24° Northeast 463 533 39,000  Level Jacksonville Center
Mon 02:49:45 PM 31.6172 -82.1461 23° Northeast 457 526 39,000  Level Jacksonville Center
Mon 02:50:45 PM 31.7278 -82.0914 23° Northeast 469 540 39,000  Level Jacksonville Center
Mon 02:51:45 PM 31.8650 -82.0217 23° Northeast 474 545 39,000  Level Jacksonville Center
Mon 02:52:45 PM 31.9878 -81.9617 23° Northeast 474 545 39,000  Level Jacksonville Center
Mon 02:53:45 PM 32.0981 -81.9092 22° Northeast 474 545 39,000  Level Jacksonville Center
Mon 02:54:45 PM 32.2353 -81.8464 21° North 474 545 39,000  Level Jacksonville Center
Mon 02:55:45 PM 32.3600 -81.7858 22° Northeast 474 545 39,000  Level Jacksonville Center
Mon 02:56:45 PM 32.4703 -81.7328 22° Northeast 474 545 39,000  Level Jacksonville Center
Mon 02:57:45 PM 32.6075 -81.6669 22° Northeast 474 545 39,000  Level Jacksonville Center
Mon 02:58:45 PM 32.7175 -81.6111 23° Northeast 474 545 39,000  Level Jacksonville Center
Mon 02:59:45 PM 32.8442 -81.5525 21° North 474 545 39,000  Level Jacksonville Center
Mon 03:00:45 PM 32.9647 -81.4961 21° North 474 545 39,000  Level Jacksonville Center
Mon 03:01:45 PM 33.0786 -81.4150 31° Northeast 469 540 39,000  Level Jacksonville Center
Mon 03:02:45 PM 33.1903 -81.3289 33° Northeast 469 540 39,000  Level Jacksonville Center
Mon 03:03:45 PM 33.3039 -81.2422 33° Northeast 474 545 39,000 -100 Level Jacksonville Center
Mon 03:04:45 PM 33.4175 -81.1531 33° Northeast 479 551 38,800 -600 Descending Jacksonville Center
Mon 03:05:45 PM 33.5392 -81.0561 34° Northeast 479 551 37,800 -1,000 Descending Jacksonville Center
Mon 03:06:45 PM 33.6528 -80.9689 33° Northeast 479 551 36,800 -950 Descending Jacksonville Center
Mon 03:07:45 PM 33.7681 -80.8764 34° Northeast 479 551 35,900 -950 Descending Jacksonville Center
Mon 03:08:45 PM 33.8836 -80.7861 33° Northeast 479 551 34,900 -1,100 Descending Jacksonville Center
Mon 03:09:45 PM 33.9967 -80.6983 33° Northeast 479 551 33,700 -1,650 Descending Jacksonville Center
Mon 03:10:45 PM 34.1078 -80.6078 34° Northeast 479 551 31,600 -2,100 Descending Jacksonville Center
Mon 03:11:45 PM 34.2147 -80.5222 33° Northeast 474 545 29,500 -2,000 Descending Jacksonville Center
Mon 03:12:45 PM 34.3217 -80.4386 33° Northeast 467 537 27,600 -1,950 Descending Jacksonville Center
Mon 03:13:45 PM 34.4222 -80.3553 34° Northeast 452 520 25,600 -1,220 Descending Jacksonville Center
Mon 03:15:42 PM 34.6128 -80.2022 33° Northeast 408 470 24,000 -542 Descending Washington Center
Mon 03:16:42 PM 34.7075 -80.1244 34° Northeast 408 470 24,000 -500 Level Washington Center
Mon 03:17:42 PM 34.8003 -80.0461 35° Northeast 408 470 23,000 -500 Descending Washington Center
Mon 03:18:42 PM 34.8872 -79.9544 41° Northeast 408 470 23,000 -600 Level Washington Center
Mon 03:19:42 PM 34.9697 -79.8603 43° Northeast 403 464 21,800 -1,550 Descending Washington Center
Mon 03:20:42 PM 35.0481 -79.7731 42° Northeast 393 452 19,900 -1,850 Descending Washington Center
Mon 03:21:42 PM 35.1242 -79.6856 43° Northeast 381 438 18,100 -1,850 Descending Washington Center
Mon 03:22:42 PM 35.2042 -79.6031 40° Northeast 366 421 16,200 -1,731 Descending Washington Center
Mon 03:23:26 PM 35.2600 -79.5575 34° Northeast 357 411 15,100 -1,700 Descending Washington Center
Mon 03:23:42 PM 35.2836 -79.5383 34° Northeast 356 410 14,500 -1,946 Descending Washington Center
Mon 03:24:03 PM 35.3111 -79.5219 26° Northeast 340 391 13,900 -1,600 Descending Washington Center
Mon 03:24:42 PM 35.3581 -79.4886 30° Northeast 338 389 12,900 -1,700 Descending Washington Center
Mon 03:25:03 PM 35.3922 -79.4672 27° Northeast 332 382 12,200 -1,500 Descending Washington Center
Mon 03:25:42 PM 35.4456 -79.4317 29° Northeast 327 376 11,400 -1,091 Descending Washington Center
Mon 03:25:58 PM 35.4628 -79.4172 34° Northeast 312 359 11,200 -1,200 Descending Washington Center
Mon 03:26:42 PM 35.5056 -79.3836 33° Northeast 311 358 10,200 -1,341 Descending Washington Center
Mon 03:27:23 PM 35.5406 -79.3267 53° Northeast 276 318 9,300 -1,500 Descending Washington Center
Mon 03:27:42 PM 35.5561 -79.2967 57° Northeast 278 320 8,700 -1,429 Descending Washington Center
Mon 03:28:05 PM 35.5739 -79.2617 58° Northeast 277 319 8,300 -1,100 Descending Washington Center
Mon 03:28:42 PM 35.5939 -79.2217 58° Northeast 273 314 7,600 -1,418 Descending Washington Center
Mon 03:29:00 PM 35.6094 -79.1917 57° Northeast 274 315 7,000 -1,400 Descending Washington Center
Mon 03:29:42 PM 35.6383 -79.1394 56° Northeast 266 306 6,200 -647 Descending Washington Center
Mon 03:30:42 PM 35.6736 -79.0719 57° Northeast 247 284 5,900 -699 Descending Washington Center
Mon 03:31:25 PM 35.6958 -79.0269 59° Northeast 214 246 5,000 -1,200 Descending Washington Center
Mon 03:31:42 PM 35.7067 -79.0094 53° Northeast 226 260 4,700 -837 Descending Washington Center
Mon 03:32:08 PM 35.7158 -78.9842 66° East 214 246 4,400 -800 Descending Washington Center
Mon 03:32:42 PM 35.7397 -78.9519 48° Northeast 215 247 3,900 -873 Descending Washington Center
Mon 03:33:03 PM 35.7547 -78.9372 39° Northeast 210 242 3,600 -1,080 Descending Washington Center
Mon 03:34:22 PM 35.8044 -78.8728 46° Northeast 193 222 2,100 -992 Descending Washington Center
Mon 03:35:16 PM 35.8325 -78.8356 47° Northeast 136 157 1,400 -730 Descending Washington Center
Mon 03:36:17 PM 35.8561 -78.8083 43° Northeast 123 142 700 -689 Descending Washington Center
Mon 03:38:00 PM 35.8667 -78.7833 51° Northeast  Level FlightAware Approximate

Login

Don't have an account? Register now (free) for customized features, flight alerts, and more!